createdAt,value
2023-07-18T00:00:29.568Z,65.09
2023-07-18T00:05:35.441Z,64.00
2023-07-18T00:10:39.684Z,65.14
2023-07-18T00:15:46.248Z,66.03
2023-07-18T00:20:50.756Z,66.63
2023-07-18T00:25:55.736Z,66.08
2023-07-18T00:31:03.144Z,65.61
2023-07-18T00:36:07.809Z,65.90
2023-07-18T00:41:13.521Z,65.04
2023-07-18T00:46:20.690Z,65.82
2023-07-18T00:51:26.675Z,65.55
2023-07-18T00:56:32.363Z,65.92
2023-07-18T01:01:38.376Z,65.99
2023-07-18T01:06:43.185Z,66.80
2023-07-18T01:11:47.561Z,66.73
2023-07-18T01:16:53.948Z,67.89
2023-07-18T01:22:00.614Z,67.53
2023-07-18T01:27:05.306Z,67.75
2023-07-18T01:32:10.880Z,67.60
2023-07-18T01:37:18.198Z,67.46
2023-07-18T01:42:22.381Z,68.53
2023-07-18T01:47:28.315Z,71.09
2023-07-18T01:52:34.568Z,70.06
2023-07-18T01:57:48.037Z,69.98
2023-07-18T02:02:54.242Z,69.37
2023-07-18T02:08:00.384Z,68.51
2023-07-18T02:13:04.563Z,69.27
2023-07-18T02:18:09.842Z,69.41
2023-07-18T02:23:15.440Z,69.84
2023-07-18T02:28:19.953Z,70.10
2023-07-18T02:33:24.332Z,71.56
2023-07-18T02:38:31.018Z,71.72
2023-07-18T02:43:36.559Z,71.95
2023-07-18T02:48:41.056Z,71.56
2023-07-18T02:53:49.396Z,72.02
2023-07-18T02:58:54.104Z,70.76
2023-07-18T03:03:59.043Z,71.95
2023-07-18T03:09:08.182Z,70.70
2023-07-18T03:14:12.714Z,71.23
2023-07-18T03:19:17.206Z,71.37
2023-07-18T03:24:23.364Z,70.74
2023-07-18T03:29:27.425Z,71.50
2023-07-18T03:34:32.477Z,71.51
2023-07-18T03:39:38.075Z,71.02
2023-07-18T03:44:44.395Z,70.89
2023-07-18T03:49:48.829Z,71.24
2023-07-18T03:54:54.724Z,71.99
2023-07-18T03:59:59.239Z,72.30
2023-07-18T04:05:05.125Z,73.03
2023-07-18T04:10:13.134Z,71.26
2023-07-18T04:15:17.817Z,71.20
2023-07-18T04:20:23.408Z,70.83
2023-07-18T04:25:33.761Z,72.30
2023-07-18T04:30:38.168Z,71.60
2023-07-18T04:35:49.363Z,72.02
2023-07-18T04:40:54.973Z,71.36
2023-07-18T04:46:00.357Z,70.39
2023-07-18T04:51:04.934Z,69.18
2023-07-18T04:56:11.515Z,68.80
2023-07-18T05:01:20.236Z,69.84
2023-07-18T05:06:25.424Z,70.07
2023-07-18T05:11:33.105Z,69.30
2023-07-18T05:16:39.574Z,69.13
2023-07-18T05:21:43.734Z,69.00
2023-07-18T05:26:49.332Z,69.13
2023-07-18T05:31:53.580Z,67.97
2023-07-18T05:36:58.587Z,68.09
2023-07-18T05:42:04.452Z,67.46
2023-07-18T05:47:09.088Z,67.51
2023-07-18T05:52:13.831Z,66.92
2023-07-18T05:57:19.503Z,65.96
2023-07-18T06:02:24.087Z,65.34
2023-07-18T06:07:28.450Z,65.79
2023-07-18T06:12:34.874Z,65.59
2023-07-18T06:17:39.948Z,65.64
2023-07-18T06:22:45.545Z,65.49
2023-07-18T06:27:51.879Z,63.32
2023-07-18T06:32:56.762Z,62.63
2023-07-18T06:38:01.136Z,62.58
2023-07-18T06:43:06.955Z,61.29
2023-07-18T06:48:11.296Z,61.47
2023-07-18T06:53:15.990Z,61.46
2023-07-18T06:58:21.972Z,60.77
2023-07-18T07:03:28.359Z,60.84
2023-07-18T07:08:34.835Z,60.54
2023-07-18T07:13:40.643Z,59.55
2023-07-18T07:18:44.710Z,60.36
2023-07-18T07:23:48.859Z,59.88
2023-07-18T07:28:55.547Z,59.54
2023-07-18T07:34:00.440Z,59.40
2023-07-18T07:39:05.958Z,58.64
2023-07-18T07:44:11.933Z,59.11
2023-07-18T07:49:16.081Z,58.50
2023-07-18T07:54:20.893Z,59.06
2023-07-18T07:59:26.382Z,59.42
2023-07-18T08:04:31.736Z,59.41
2023-07-18T08:09:38.282Z,58.34
2023-07-18T08:14:46.063Z,57.94
2023-07-18T08:19:50.516Z,57.46
2023-07-18T08:24:54.945Z,56.83
2023-07-18T08:30:05.558Z,55.69
2023-07-18T08:35:10.747Z,54.93
2023-07-18T08:40:15.220Z,53.84
2023-07-18T08:45:24.971Z,53.55
2023-07-18T08:50:32.194Z,51.86
2023-07-18T08:55:38.179Z,50.92
2023-07-18T09:00:44.749Z,49.78
2023-07-18T09:05:52.742Z,49.16
2023-07-18T09:11:04.860Z,48.72
2023-07-18T09:16:18.804Z,47.61
2023-07-18T09:21:25.189Z,47.01
2023-07-18T09:26:30.267Z,46.15
2023-07-18T09:31:36.465Z,47.13
2023-07-18T09:36:41.690Z,46.48
2023-07-18T09:41:46.683Z,47.96
2023-07-18T09:46:53.333Z,47.32
2023-07-18T09:52:04.433Z,46.57
2023-07-18T09:57:11.561Z,44.23
2023-07-18T10:02:17.880Z,45.18
2023-07-18T10:07:23.000Z,43.74
2023-07-18T10:12:27.976Z,42.86
2023-07-18T10:17:50.928Z,43.62
2023-07-18T10:22:59.867Z,43.50
2023-07-18T10:28:05.601Z,41.34
2023-07-18T10:33:11.932Z,40.61
2023-07-18T10:38:16.791Z,40.17
2023-07-18T10:43:23.638Z,40.80
2023-07-18T10:48:32.188Z,41.16
2023-07-18T10:53:37.027Z,41.43
2023-07-18T10:58:42.372Z,43.82
2023-07-18T11:09:17.168Z,44.12
2023-07-18T11:14:21.594Z,42.74
2023-07-18T11:19:29.549Z,40.67
2023-07-18T11:24:34.223Z,40.33
2023-07-18T11:29:38.548Z,39.40
2023-07-18T11:34:44.007Z,42.21
2023-07-18T11:39:49.787Z,41.87
2023-07-18T11:44:56.306Z,39.38
2023-07-18T11:50:10.089Z,39.83
2023-07-18T11:55:17.459Z,39.83
2023-07-18T12:00:27.824Z,42.05
2023-07-18T12:05:34.124Z,39.50
2023-07-18T12:10:40.051Z,40.58
2023-07-18T12:15:45.954Z,40.87
2023-07-18T12:20:55.101Z,38.56
2023-07-18T12:26:00.148Z,38.14
2023-07-18T12:31:08.386Z,39.89
2023-07-18T12:36:18.013Z,39.14
2023-07-18T12:41:24.176Z,39.68
2023-07-18T12:46:33.025Z,38.78
2023-07-18T12:51:39.345Z,39.63
2023-07-18T12:56:44.746Z,39.45
2023-07-18T13:01:49.010Z,40.50
2023-07-18T13:06:57.224Z,40.28
2023-07-18T13:12:03.942Z,39.30
2023-07-18T13:17:10.083Z,40.88
2023-07-18T13:22:17.420Z,41.66
2023-07-18T13:27:23.940Z,42.21
2023-07-18T13:32:28.284Z,41.82
2023-07-18T13:37:34.189Z,41.78
2023-07-18T13:42:38.448Z,42.03
2023-07-18T13:47:44.630Z,38.58
2023-07-18T13:52:50.717Z,40.75
2023-07-18T13:57:58.167Z,41.43
2023-07-18T14:03:13.278Z,40.32
2023-07-18T14:08:26.238Z,40.67
2023-07-18T14:13:32.104Z,39.71
2023-07-18T14:18:36.621Z,40.14
2023-07-18T14:23:42.116Z,38.96
2023-07-18T14:28:46.269Z,39.47
2023-07-18T14:34:04.692Z,39.11
2023-07-18T14:39:14.107Z,39.33
2023-07-18T14:44:19.556Z,38.99
2023-07-18T14:49:24.182Z,37.38
2023-07-18T14:54:30.104Z,37.70
2023-07-18T14:59:36.050Z,37.94
2023-07-18T15:04:40.808Z,38.21
2023-07-18T15:09:48.283Z,37.65
2023-07-18T15:14:54.263Z,36.43
2023-07-18T15:19:59.677Z,37.20
2023-07-18T15:25:07.811Z,35.33
2023-07-18T15:30:13.758Z,36.10
2023-07-18T15:35:18.578Z,36.26
2023-07-18T15:40:24.815Z,35.11
2023-07-18T15:45:32.362Z,34.11
2023-07-18T15:50:38.349Z,33.29
2023-07-18T15:55:44.263Z,33.07
2023-07-18T16:00:52.422Z,31.91
2023-07-18T16:05:58.676Z,32.89
2023-07-18T16:11:05.962Z,32.36
2023-07-18T16:16:16.653Z,31.73
2023-07-18T16:21:24.361Z,31.20
2023-07-18T16:26:31.584Z,30.93
2023-07-18T16:31:39.240Z,31.89
2023-07-18T16:36:43.881Z,30.65
2023-07-18T16:41:49.862Z,31.25
2023-07-18T16:46:54.612Z,31.01
2023-07-18T16:51:59.633Z,30.77
2023-07-18T16:57:05.407Z,31.02
2023-07-18T17:02:09.583Z,31.38
2023-07-18T17:07:14.229Z,31.39
2023-07-18T17:12:20.132Z,31.36
2023-07-18T17:17:24.578Z,32.29
2023-07-18T17:22:28.836Z,32.79
2023-07-18T17:27:34.882Z,33.68
2023-07-18T17:32:39.426Z,34.50
2023-07-18T17:37:43.577Z,35.87
2023-07-18T17:42:51.350Z,36.17
2023-07-18T17:47:58.668Z,36.76
2023-07-18T17:53:08.373Z,37.42
2023-07-18T17:58:14.089Z,37.89
2023-07-18T18:03:18.718Z,37.83
2023-07-18T18:08:23.563Z,37.85
2023-07-18T18:13:29.970Z,39.12
2023-07-18T18:18:34.321Z,39.39
2023-07-18T18:23:40.915Z,40.38
2023-07-18T18:28:48.466Z,40.36
2023-07-18T18:33:54.291Z,41.82
2023-07-18T18:38:59.124Z,43.19
2023-07-18T18:44:06.602Z,44.17
2023-07-18T18:49:25.049Z,45.42
2023-07-18T18:54:30.832Z,44.02
2023-07-18T18:59:39.875Z,43.16
2023-07-18T19:04:50.524Z,43.57
2023-07-18T19:09:54.895Z,44.77
2023-07-18T19:15:01.053Z,44.15
2023-07-18T19:20:06.431Z,46.61
2023-07-18T19:25:10.908Z,48.99
2023-07-18T19:30:17.552Z,49.08
2023-07-18T19:35:21.777Z,49.31
2023-07-18T19:40:26.362Z,49.47
2023-07-18T19:45:32.122Z,50.34
2023-07-18T19:50:40.359Z,50.60
2023-07-18T19:55:45.772Z,50.16
2023-07-18T20:00:51.153Z,49.73
2023-07-18T20:05:55.369Z,52.59
2023-07-18T20:10:59.642Z,52.60
2023-07-18T20:16:05.752Z,51.93
2023-07-18T20:21:09.978Z,52.65
2023-07-18T20:26:14.833Z,52.33
2023-07-18T20:31:22.161Z,52.32
2023-07-18T20:36:27.638Z,52.46
2023-07-18T20:41:32.172Z,52.46
2023-07-18T20:46:37.895Z,54.25
2023-07-18T20:51:43.268Z,53.63
2023-07-18T20:56:47.652Z,54.26
2023-07-18T21:01:53.508Z,53.09
2023-07-18T21:06:57.729Z,54.24
2023-07-18T21:12:02.140Z,54.70
2023-07-18T21:17:08.290Z,56.65
2023-07-18T21:22:12.547Z,57.69
2023-07-18T21:27:17.575Z,56.78
2023-07-18T21:32:23.871Z,56.25
2023-07-18T21:37:28.213Z,56.15
2023-07-18T21:42:32.476Z,56.52
2023-07-18T21:47:39.504Z,56.33
2023-07-18T21:52:45.636Z,56.45
2023-07-18T21:57:50.002Z,56.73
2023-07-18T22:02:55.657Z,56.83
2023-07-18T22:07:59.886Z,57.15
2023-07-18T22:13:04.568Z,57.49
2023-07-18T22:18:25.784Z,56.68
2023-07-18T22:23:32.220Z,57.58
2023-07-18T22:28:36.453Z,56.49
2023-07-18T22:33:42.661Z,56.56
2023-07-18T22:38:46.679Z,54.17
2023-07-18T22:43:51.196Z,54.59
2023-07-18T22:48:57.179Z,54.07
2023-07-18T22:54:02.003Z,52.11
2023-07-18T22:59:06.817Z,53.88
2023-07-18T23:04:12.971Z,52.90
2023-07-18T23:09:17.336Z,51.96
2023-07-18T23:14:21.819Z,51.79
2023-07-18T23:19:27.822Z,52.47
2023-07-18T23:24:32.089Z,53.36
2023-07-18T23:29:36.875Z,53.11
2023-07-18T23:34:42.466Z,52.43
2023-07-18T23:39:46.664Z,53.57
2023-07-18T23:44:50.860Z,54.27
2023-07-18T23:49:57.098Z,53.63
2023-07-18T23:55:01.549Z,54.18
